createdAt,value
2022-07-29T00:01:43.897Z,4.63
2022-07-29T00:04:12.991Z,4.17
2022-07-29T00:06:41.304Z,4.57
2022-07-29T00:09:09.278Z,4.70
2022-07-29T00:11:38.734Z,4.37
2022-07-29T00:14:06.894Z,4.50
2022-07-29T00:16:34.951Z,4.50
2022-07-29T00:19:02.892Z,4.50
2022-07-29T00:21:31.337Z,3.73
2022-07-29T00:23:59.274Z,4.30
2022-07-29T00:26:28.797Z,4.23
2022-07-29T00:29:30.692Z,3.83
2022-07-29T00:31:46.129Z,4.30
2022-07-29T00:34:28.072Z,3.80
2022-07-29T00:36:55.983Z,3.93
2022-07-29T00:39:24.130Z,3.83
2022-07-29T00:41:52.909Z,4.13
2022-07-29T00:44:22.601Z,4.03
2022-07-29T00:46:50.617Z,3.87
2022-07-29T00:49:18.849Z,3.90
2022-07-29T00:51:47.155Z,4.03
2022-07-29T00:54:15.783Z,3.80
2022-07-29T00:56:44.043Z,4.03
2022-07-29T00:59:11.932Z,4.40
2022-07-29T01:01:41.280Z,4.30
2022-07-29T01:04:09.408Z,3.90
2022-07-29T01:06:37.620Z,4.03
2022-07-29T01:09:05.660Z,3.53
2022-07-29T01:11:33.804Z,4.27
2022-07-29T01:14:03.111Z,4.00
2022-07-29T01:16:34.271Z,4.37
2022-07-29T01:19:15.307Z,4.03
2022-07-29T01:21:54.085Z,4.07
2022-07-29T01:24:42.079Z,4.33
2022-07-29T01:27:28.398Z,4.43
2022-07-29T01:30:01.217Z,4.73
2022-07-29T01:32:37.529Z,4.83
2022-07-29T01:35:08.702Z,4.97
2022-07-29T01:37:45.140Z,5.13
2022-07-29T01:40:22.812Z,5.60
2022-07-29T01:42:53.694Z,5.23
2022-07-29T01:45:28.482Z,5.27
2022-07-29T01:48:02.438Z,4.90
2022-07-29T01:50:36.515Z,5.07
2022-07-29T01:53:08.635Z,5.07
2022-07-29T01:55:40.571Z,4.00
2022-07-29T01:58:10.397Z,4.30
2022-07-29T02:00:41.336Z,4.67
2022-07-29T02:03:13.794Z,4.57
2022-07-29T02:05:44.684Z,4.07
2022-07-29T02:08:14.020Z,3.67
2022-07-29T02:10:42.886Z,3.73
2022-07-29T02:13:13.241Z,3.57
2022-07-29T02:15:44.419Z,3.60
2022-07-29T02:18:17.600Z,3.73
2022-07-29T02:20:48.980Z,3.43
2022-07-29T02:23:21.169Z,3.40
2022-07-29T02:25:51.357Z,3.57
2022-07-29T02:28:22.226Z,3.73
2022-07-29T02:30:54.306Z,3.10
2022-07-29T02:33:23.602Z,3.27
2022-07-29T02:35:52.908Z,3.20
2022-07-29T02:38:39.715Z,3.43
2022-07-29T02:41:17.198Z,3.43
2022-07-29T02:43:47.104Z,3.83
2022-07-29T02:46:28.582Z,3.67
2022-07-29T02:49:01.573Z,4.03
2022-07-29T02:51:44.480Z,4.07
2022-07-29T02:54:22.252Z,4.93
2022-07-29T02:56:53.665Z,5.40
2022-07-29T02:59:27.022Z,5.40
2022-07-29T03:01:57.905Z,5.60
2022-07-29T03:04:29.362Z,5.80
2022-07-29T03:07:00.847Z,6.23
2022-07-29T03:09:30.119Z,5.93
2022-07-29T03:11:59.219Z,6.40
2022-07-29T03:14:28.383Z,6.00
2022-07-29T03:16:58.212Z,6.17
2022-07-29T03:19:26.284Z,6.10
2022-07-29T03:21:54.663Z,5.87
2022-07-29T03:24:33.969Z,5.13
2022-07-29T03:27:02.549Z,4.63
2022-07-29T03:29:33.856Z,5.13
2022-07-29T03:32:08.482Z,5.70
2022-07-29T03:34:37.903Z,6.20
2022-07-29T03:37:06.828Z,6.13
2022-07-29T03:39:40.204Z,5.80
2022-07-29T03:42:10.441Z,5.93
2022-07-29T03:44:40.029Z,5.43
2022-07-29T03:47:11.517Z,5.40
2022-07-29T03:49:41.099Z,5.03
2022-07-29T03:52:09.904Z,5.03
2022-07-29T03:54:37.876Z,5.10
2022-07-29T03:57:09.311Z,5.27
2022-07-29T03:59:38.839Z,5.33
2022-07-29T04:02:11.286Z,5.10
2022-07-29T04:04:39.581Z,5.17
2022-07-29T04:07:07.577Z,5.53
2022-07-29T04:09:35.469Z,4.80
2022-07-29T04:12:04.404Z,5.73
2022-07-29T04:14:33.288Z,6.07
2022-07-29T04:17:01.506Z,4.43
2022-07-29T04:19:31.296Z,4.00
2022-07-29T04:22:00.974Z,3.90
2022-07-29T04:24:29.115Z,4.30
2022-07-29T04:26:57.015Z,3.73
2022-07-29T04:29:24.918Z,3.37
2022-07-29T04:31:52.839Z,6.93
2022-07-29T04:34:21.126Z,3.70
2022-07-29T04:36:50.517Z,3.13
2022-07-29T04:39:22.782Z,2.87
2022-07-29T04:41:52.559Z,3.30
2022-07-29T04:44:26.552Z,3.07
2022-07-29T04:46:58.657Z,3.57
2022-07-29T04:49:26.645Z,3.27
2022-07-29T04:51:55.970Z,3.40
2022-07-29T04:54:23.894Z,3.27
2022-07-29T04:56:53.361Z,3.40
2022-07-29T04:59:21.262Z,3.50
2022-07-29T05:01:49.193Z,3.50
2022-07-29T05:04:17.616Z,4.07
2022-07-29T05:06:45.740Z,4.17
2022-07-29T05:09:15.040Z,4.40
2022-07-29T05:11:42.872Z,4.80
2022-07-29T05:14:10.817Z,4.40
2022-07-29T05:16:40.120Z,5.00
2022-07-29T05:19:13.682Z,4.67
2022-07-29T05:21:42.179Z,4.40
2022-07-29T05:24:10.154Z,4.27
2022-07-29T05:26:39.693Z,4.53
2022-07-29T05:29:07.671Z,4.33
2022-07-29T05:31:55.579Z,4.23
2022-07-29T05:34:23.553Z,4.47
2022-07-29T05:36:51.902Z,3.90
2022-07-29T05:39:19.948Z,4.50
2022-07-29T05:41:52.015Z,4.03
2022-07-29T05:44:20.059Z,3.90
2022-07-29T05:46:48.012Z,4.07
2022-07-29T05:49:26.874Z,3.87
2022-07-29T05:51:55.404Z,3.57
2022-07-29T05:54:23.733Z,3.90
2022-07-29T05:56:53.005Z,4.37
2022-07-29T05:59:20.952Z,4.23
2022-07-29T06:01:48.931Z,4.10
2022-07-29T06:04:17.170Z,4.27
2022-07-29T06:06:45.306Z,3.80
2022-07-29T06:09:14.342Z,4.20
2022-07-29T06:11:42.535Z,3.73
2022-07-29T06:14:12.096Z,3.73
2022-07-29T06:16:40.096Z,3.60
2022-07-29T06:19:08.087Z,3.93
2022-07-29T06:21:38.674Z,4.07
2022-07-29T06:24:10.145Z,4.40
2022-07-29T06:26:40.020Z,4.50
2022-07-29T06:29:08.301Z,3.97
2022-07-29T06:31:37.508Z,3.77
2022-07-29T06:34:05.915Z,4.13
2022-07-29T06:36:36.519Z,4.40
2022-07-29T06:39:07.771Z,3.83
2022-07-29T06:41:36.469Z,3.97
2022-07-29T06:44:10.732Z,4.10
2022-07-29T06:46:40.155Z,4.40
2022-07-29T06:49:08.215Z,4.13
2022-07-29T06:51:36.181Z,4.73
2022-07-29T06:54:06.542Z,4.77
2022-07-29T06:56:39.137Z,4.57
2022-07-29T06:59:09.079Z,4.50
2022-07-29T07:01:37.690Z,4.43
2022-07-29T07:04:07.296Z,4.40
2022-07-29T07:06:35.226Z,4.77
2022-07-29T07:09:03.412Z,4.50
2022-07-29T07:11:31.528Z,4.00
2022-07-29T07:14:03.409Z,4.73
2022-07-29T07:16:33.133Z,4.70
2022-07-29T07:19:01.428Z,4.70
2022-07-29T07:21:31.096Z,4.70
2022-07-29T07:23:59.616Z,4.30
2022-07-29T07:26:28.049Z,4.37
2022-07-29T07:28:56.116Z,4.47
2022-07-29T07:31:24.079Z,4.90
2022-07-29T07:33:52.629Z,5.03
2022-07-29T07:36:20.575Z,5.23
2022-07-29T07:38:49.962Z,4.70
2022-07-29T07:41:17.937Z,4.40
2022-07-29T07:43:45.851Z,5.07
2022-07-29T07:46:13.842Z,4.90
2022-07-29T07:48:41.846Z,4.77
2022-07-29T07:51:10.204Z,4.20
2022-07-29T07:53:38.044Z,5.10
2022-07-29T07:56:10.426Z,4.53
2022-07-29T07:58:39.433Z,4.47
2022-07-29T08:01:07.550Z,4.97
2022-07-29T08:03:35.658Z,5.00
2022-07-29T08:06:03.680Z,4.37
2022-07-29T08:08:31.596Z,4.67
2022-07-29T08:11:02.154Z,4.63
2022-07-29T08:13:34.867Z,4.17
2022-07-29T08:16:02.995Z,4.20
2022-07-29T08:18:32.962Z,4.37
2022-07-29T08:21:01.117Z,4.27
2022-07-29T08:23:46.473Z,4.37
2022-07-29T08:26:17.031Z,4.20
2022-07-29T08:28:50.436Z,3.93
2022-07-29T08:31:19.280Z,4.43
2022-07-29T08:33:47.264Z,4.20
2022-07-29T08:36:15.158Z,4.07
2022-07-29T08:38:43.071Z,4.10
2022-07-29T08:41:11.270Z,4.00
2022-07-29T08:43:39.213Z,4.63
2022-07-29T08:46:08.562Z,4.23
2022-07-29T08:48:36.742Z,4.00
2022-07-29T08:51:06.120Z,4.07
2022-07-29T08:53:35.152Z,3.73
2022-07-29T08:56:03.978Z,4.20
2022-07-29T08:58:36.765Z,3.70
2022-07-29T09:01:07.703Z,3.70
2022-07-29T09:03:42.564Z,3.50
2022-07-29T09:06:10.890Z,4.07
2022-07-29T09:08:38.804Z,4.03
2022-07-29T09:11:08.356Z,3.80
2022-07-29T09:13:37.113Z,4.43
2022-07-29T09:16:09.414Z,4.27
2022-07-29T09:18:39.077Z,3.80
2022-07-29T09:21:27.965Z,3.30
2022-07-29T09:24:04.360Z,4.00
2022-07-29T09:26:33.479Z,4.00
2022-07-29T09:29:02.075Z,3.53
2022-07-29T09:31:36.243Z,3.37
2022-07-29T09:34:05.650Z,3.43
2022-07-29T09:36:41.336Z,3.87
2022-07-29T09:39:09.451Z,3.43
2022-07-29T09:41:48.021Z,4.23
2022-07-29T09:44:16.792Z,3.63
2022-07-29T09:46:56.404Z,3.60
2022-07-29T09:49:24.920Z,3.70
2022-07-29T09:52:05.426Z,3.60
2022-07-29T09:54:37.665Z,3.97
2022-07-29T09:57:07.481Z,3.60
2022-07-29T09:59:35.613Z,3.60
2022-07-29T10:02:03.631Z,3.80
2022-07-29T10:04:41.623Z,3.73
2022-07-29T10:07:11.284Z,3.40
2022-07-29T10:09:39.195Z,3.40
2022-07-29T10:12:12.033Z,3.70
2022-07-29T10:14:40.679Z,3.63
2022-07-29T10:17:10.771Z,3.57
2022-07-29T10:19:40.163Z,4.20
2022-07-29T10:22:11.489Z,3.43
2022-07-29T10:24:40.523Z,3.80
2022-07-29T10:27:10.532Z,4.27
2022-07-29T10:29:38.483Z,5.23
2022-07-29T10:32:24.723Z,5.40
2022-07-29T10:35:21.977Z,13.13
2022-07-29T10:38:17.237Z,9.47
2022-07-29T10:41:12.213Z,7.50
2022-07-29T10:43:51.278Z,5.00
2022-07-29T10:46:20.481Z,4.27
2022-07-29T10:49:09.079Z,5.80
2022-07-29T10:52:01.317Z,6.40
2022-07-29T10:54:44.110Z,6.10
2022-07-29T10:57:53.071Z,6.97
2022-07-29T11:00:31.371Z,7.37
2022-07-29T11:03:00.104Z,6.83
2022-07-29T11:05:32.073Z,7.30
2022-07-29T11:08:27.836Z,7.57
2022-07-29T11:11:44.127Z,6.97
2022-07-29T11:14:40.905Z,8.00
2022-07-29T11:17:09.097Z,6.80
2022-07-29T11:19:40.389Z,6.80
2022-07-29T11:22:16.601Z,7.30
2022-07-29T11:24:50.280Z,7.03
2022-07-29T11:27:20.980Z,6.27
2022-07-29T11:29:55.776Z,6.43
2022-07-29T11:32:25.580Z,6.60
2022-07-29T11:35:16.630Z,6.57
2022-07-29T11:37:51.375Z,6.43
2022-07-29T11:40:23.751Z,6.83
2022-07-29T11:42:52.632Z,6.70
2022-07-29T11:45:41.271Z,6.87
2022-07-29T11:48:32.054Z,7.30
2022-07-29T11:51:01.549Z,7.57
2022-07-29T11:53:32.874Z,6.73
2022-07-29T11:56:03.419Z,6.40
2022-07-29T11:58:32.136Z,6.20
2022-07-29T12:01:04.105Z,6.40
2022-07-29T12:03:35.832Z,6.77
2022-07-29T12:06:07.361Z,7.17
2022-07-29T12:08:42.477Z,8.07
2022-07-29T12:11:21.228Z,6.23
2022-07-29T12:13:49.799Z,7.00
2022-07-29T12:16:26.165Z,6.53
2022-07-29T12:18:59.392Z,6.20
2022-07-29T12:21:28.846Z,6.43
2022-07-29T12:24:04.814Z,7.50
2022-07-29T12:26:50.682Z,7.33
2022-07-29T12:29:20.330Z,7.80
2022-07-29T12:32:03.185Z,6.57
2022-07-29T12:34:31.859Z,7.63
2022-07-29T12:36:59.823Z,7.17
2022-07-29T12:39:29.064Z,7.17
2022-07-29T12:42:03.914Z,6.90
2022-07-29T12:44:46.175Z,7.30
2022-07-29T12:47:15.800Z,7.27
2022-07-29T12:49:43.930Z,7.37
2022-07-29T12:52:29.405Z,7.20
2022-07-29T12:54:57.996Z,7.20
2022-07-29T12:57:26.912Z,7.17
2022-07-29T13:00:03.919Z,7.57
2022-07-29T13:02:33.666Z,6.47
2022-07-29T13:05:02.797Z,5.90
2022-07-29T13:07:54.581Z,5.33
2022-07-29T13:10:24.280Z,5.53
2022-07-29T13:13:09.023Z,5.20
2022-07-29T13:15:37.608Z,4.60
2022-07-29T13:18:07.875Z,5.87
2022-07-29T13:20:36.097Z,6.00
2022-07-29T13:23:04.141Z,6.67
2022-07-29T13:25:34.339Z,6.40
2022-07-29T13:28:02.249Z,6.90
2022-07-29T13:30:30.277Z,7.80
2022-07-29T13:32:58.213Z,7.10
2022-07-29T13:35:30.697Z,7.00
2022-07-29T13:37:58.722Z,7.17
2022-07-29T13:40:26.942Z,6.43
2022-07-29T13:42:54.903Z,7.00
2022-07-29T13:45:22.964Z,7.63
2022-07-29T13:47:50.888Z,7.60
2022-07-29T13:50:18.796Z,7.60
2022-07-29T13:52:49.343Z,8.00
2022-07-29T13:55:17.202Z,7.53
2022-07-29T13:57:45.104Z,8.23
2022-07-29T14:00:14.740Z,7.53
2022-07-29T14:02:42.581Z,7.57
2022-07-29T14:05:11.578Z,7.80
2022-07-29T14:07:39.934Z,8.17
2022-07-29T14:10:10.253Z,8.80
2022-07-29T14:12:38.323Z,8.13
2022-07-29T14:15:07.339Z,9.40
2022-07-29T14:17:35.409Z,8.70
2022-07-29T14:20:03.467Z,9.20
2022-07-29T14:22:31.371Z,9.33
2022-07-29T14:25:02.304Z,9.77
2022-07-29T14:27:44.809Z,9.47
2022-07-29T14:30:13.706Z,8.13
2022-07-29T14:32:41.702Z,8.83
2022-07-29T14:35:10.311Z,8.97
2022-07-29T14:37:40.381Z,9.10
2022-07-29T14:40:10.092Z,8.67
2022-07-29T14:42:38.520Z,9.67
2022-07-29T14:45:10.751Z,9.43
2022-07-29T14:47:40.516Z,8.87
2022-07-29T14:50:09.477Z,9.03
2022-07-29T14:52:37.377Z,9.27
2022-07-29T14:55:16.390Z,9.63
2022-07-29T14:57:48.183Z,9.17
2022-07-29T15:00:18.366Z,9.53
2022-07-29T15:03:01.299Z,9.07
2022-07-29T15:05:30.084Z,9.73
2022-07-29T15:07:57.976Z,7.43
2022-07-29T15:10:27.146Z,7.63
2022-07-29T15:12:55.046Z,8.30
2022-07-29T15:15:24.499Z,7.50
2022-07-29T15:17:52.368Z,7.30
2022-07-29T15:20:20.478Z,8.27
2022-07-29T15:22:48.357Z,6.60
2022-07-29T15:25:16.313Z,6.93
2022-07-29T15:27:44.433Z,7.37
2022-07-29T15:30:32.559Z,6.73
2022-07-29T15:33:04.450Z,6.60
2022-07-29T15:35:32.545Z,6.73
2022-07-29T15:38:00.627Z,6.27
2022-07-29T15:40:28.897Z,6.13
2022-07-29T15:42:56.839Z,6.13
2022-07-29T15:45:25.020Z,6.17
2022-07-29T15:47:52.955Z,6.10
2022-07-29T15:50:22.734Z,6.17
2022-07-29T15:52:50.604Z,6.93
2022-07-29T15:55:19.002Z,7.67
2022-07-29T15:57:47.045Z,6.70
2022-07-29T16:00:17.169Z,6.80
2022-07-29T16:02:45.563Z,6.43
2022-07-29T16:05:13.633Z,6.37
2022-07-29T16:07:43.004Z,5.87
2022-07-29T16:10:11.000Z,5.40
2022-07-29T16:12:38.907Z,5.13
2022-07-29T16:15:10.504Z,5.63
2022-07-29T16:17:38.855Z,5.40
2022-07-29T16:20:08.193Z,5.90
2022-07-29T16:22:36.287Z,5.67
2022-07-29T16:25:06.268Z,5.67
2022-07-29T16:27:37.549Z,6.80
2022-07-29T16:30:07.956Z,5.57
2022-07-29T16:32:35.900Z,5.77
2022-07-29T16:35:05.213Z,4.90
2022-07-29T16:37:35.350Z,6.10
2022-07-29T16:40:03.499Z,6.07
2022-07-29T16:42:45.973Z,5.40
2022-07-29T16:45:14.755Z,5.23
2022-07-29T16:47:43.291Z,4.93
2022-07-29T16:50:11.262Z,4.90
2022-07-29T16:52:39.960Z,6.17
2022-07-29T16:55:08.857Z,5.43
2022-07-29T16:57:38.077Z,4.93
2022-07-29T17:00:07.382Z,5.90
2022-07-29T17:02:35.269Z,6.67
2022-07-29T17:05:03.130Z,6.03
2022-07-29T17:07:31.040Z,4.87
2022-07-29T17:10:03.599Z,5.33
2022-07-29T17:12:32.356Z,4.43
2022-07-29T17:15:01.661Z,4.20
2022-07-29T17:17:38.640Z,3.97
2022-07-29T17:20:09.353Z,4.03
2022-07-29T17:22:37.501Z,3.87
2022-07-29T17:25:06.567Z,5.40
2022-07-29T17:27:35.046Z,7.67
2022-07-29T17:30:06.395Z,9.63
2022-07-29T17:32:38.452Z,9.77
2022-07-29T17:35:28.602Z,4.30
2022-07-29T17:37:57.055Z,5.27
2022-07-29T17:40:25.001Z,3.20
2022-07-29T17:42:52.943Z,2.80
2022-07-29T17:45:22.173Z,2.63
2022-07-29T17:47:50.087Z,2.40
2022-07-29T17:50:17.920Z,2.83
2022-07-29T17:52:45.776Z,2.30
2022-07-29T17:55:14.132Z,3.63
2022-07-29T17:57:42.162Z,3.37
2022-07-29T18:00:10.798Z,2.30
2022-07-29T18:02:40.084Z,3.17
2022-07-29T18:05:08.545Z,2.83
2022-07-29T18:07:36.467Z,2.40
2022-07-29T18:10:04.907Z,2.30
2022-07-29T18:12:32.863Z,2.30
2022-07-29T18:15:00.784Z,2.40
2022-07-29T18:17:49.448Z,2.30
2022-07-29T18:20:17.930Z,2.57
2022-07-29T18:22:45.802Z,2.13
2022-07-29T18:25:13.750Z,2.27
2022-07-29T18:27:41.606Z,2.70
2022-07-29T18:30:10.325Z,2.23
2022-07-29T18:32:38.264Z,2.30
2022-07-29T18:35:06.769Z,2.57
2022-07-29T18:38:00.871Z,2.60
2022-07-29T18:40:25.796Z,2.73
2022-07-29T18:42:53.826Z,2.80
2022-07-29T18:45:21.966Z,3.47
2022-07-29T18:47:49.989Z,3.80
2022-07-29T18:50:19.309Z,4.67
2022-07-29T18:52:48.534Z,6.03
2022-07-29T18:55:16.416Z,4.20
2022-07-29T18:57:55.015Z,2.90
2022-07-29T19:00:25.427Z,2.73
2022-07-29T19:02:53.934Z,2.80
2022-07-29T19:05:23.025Z,2.47
2022-07-29T19:07:53.094Z,2.90
2022-07-29T19:10:21.268Z,3.10
2022-07-29T19:12:49.207Z,3.10
2022-07-29T19:15:20.246Z,2.77
2022-07-29T19:17:49.315Z,2.73
2022-07-29T19:20:17.241Z,2.77
2022-07-29T19:22:45.190Z,4.37
2022-07-29T19:25:15.196Z,4.30
2022-07-29T19:27:43.142Z,4.87
2022-07-29T19:30:11.633Z,5.23
2022-07-29T19:32:39.560Z,4.70
2022-07-29T19:35:31.069Z,5.50
2022-07-29T19:38:00.882Z,5.67
2022-07-29T19:40:30.967Z,6.27
2022-07-29T19:42:59.174Z,5.80
2022-07-29T19:45:27.428Z,5.03
2022-07-29T19:48:00.691Z,5.13
2022-07-29T19:50:29.572Z,4.60
2022-07-29T19:52:57.569Z,5.00
2022-07-29T19:55:25.507Z,5.23
2022-07-29T19:57:54.883Z,4.77
2022-07-29T20:00:23.782Z,4.50
2022-07-29T20:02:52.099Z,4.67
2022-07-29T20:05:20.134Z,5.03
2022-07-29T20:07:48.148Z,6.23
2022-07-29T20:10:16.339Z,5.47
2022-07-29T20:12:44.309Z,4.20
2022-07-29T20:15:16.609Z,5.23
2022-07-29T20:17:44.854Z,4.63
2022-07-29T20:20:13.173Z,5.20
2022-07-29T20:22:41.060Z,5.00
2022-07-29T20:25:09.986Z,4.50
2022-07-29T20:27:40.348Z,4.70
2022-07-29T20:30:13.200Z,4.70
2022-07-29T20:32:42.774Z,4.13
2022-07-29T20:35:12.070Z,4.90
2022-07-29T20:37:51.402Z,5.40
2022-07-29T20:40:25.375Z,5.00
2022-07-29T20:42:53.398Z,4.77
2022-07-29T20:45:21.337Z,4.83
2022-07-29T20:47:51.677Z,4.43
2022-07-29T20:50:20.514Z,4.43
2022-07-29T20:52:51.730Z,4.17
2022-07-29T20:55:19.988Z,4.90
2022-07-29T20:57:47.879Z,4.50
2022-07-29T21:00:16.159Z,4.70
2022-07-29T21:02:44.046Z,4.13
2022-07-29T21:05:13.401Z,4.73
2022-07-29T21:07:41.358Z,4.77
2022-07-29T21:10:09.610Z,5.00
2022-07-29T21:12:37.642Z,4.83
2022-07-29T21:15:06.676Z,5.50
2022-07-29T21:17:35.953Z,5.97
2022-07-29T21:20:06.686Z,4.90
2022-07-29T21:22:35.988Z,5.50
2022-07-29T21:25:04.065Z,5.10
2022-07-29T21:27:49.384Z,5.13
2022-07-29T21:30:17.423Z,4.40
2022-07-29T21:32:45.367Z,5.00
2022-07-29T21:35:30.216Z,5.20
2022-07-29T21:38:02.540Z,4.60
2022-07-29T21:40:30.477Z,4.93
2022-07-29T21:42:58.352Z,4.93
2022-07-29T21:45:26.851Z,5.03
2022-07-29T21:47:54.693Z,5.27
2022-07-29T21:50:22.678Z,5.03
2022-07-29T21:52:50.515Z,5.20
2022-07-29T21:55:19.969Z,5.13
2022-07-29T21:57:50.952Z,5.03
2022-07-29T22:00:18.880Z,5.10
2022-07-29T22:02:46.940Z,5.50
2022-07-29T22:05:15.394Z,5.47
2022-07-29T22:07:56.521Z,5.00
2022-07-29T22:10:27.359Z,5.07
2022-07-29T22:12:56.662Z,5.03
2022-07-29T22:15:25.293Z,4.50
2022-07-29T22:17:53.384Z,4.90
2022-07-29T22:20:22.047Z,4.93
2022-07-29T22:22:49.980Z,4.77
2022-07-29T22:25:17.917Z,4.63
2022-07-29T22:27:47.229Z,5.03
2022-07-29T22:30:15.415Z,4.57
2022-07-29T22:32:43.591Z,5.07
2022-07-29T22:35:11.919Z,4.10
2022-07-29T22:37:40.168Z,4.80
2022-07-29T22:40:09.191Z,4.67
2022-07-29T22:42:37.096Z,4.23
2022-07-29T22:45:11.618Z,4.73
2022-07-29T22:47:47.861Z,4.97
2022-07-29T22:50:17.173Z,4.27
2022-07-29T22:52:45.274Z,4.70
2022-07-29T22:55:13.228Z,4.33
2022-07-29T22:57:41.143Z,4.47
2022-07-29T23:00:11.777Z,4.47
2022-07-29T23:02:41.231Z,4.70
2022-07-29T23:05:10.329Z,4.27
2022-07-29T23:07:38.371Z,4.63
2022-07-29T23:10:07.509Z,4.27
2022-07-29T23:12:35.362Z,4.20
2022-07-29T23:15:04.573Z,4.40
2022-07-29T23:17:36.097Z,4.20
2022-07-29T23:20:07.413Z,4.17
2022-07-29T23:22:35.312Z,4.43
2022-07-29T23:25:03.383Z,4.33
2022-07-29T23:27:31.297Z,4.40
2022-07-29T23:29:59.178Z,3.80
2022-07-29T23:32:27.128Z,4.63
2022-07-29T23:34:56.360Z,4.37
2022-07-29T23:37:24.465Z,4.37
2022-07-29T23:39:54.874Z,4.53
2022-07-29T23:42:22.738Z,4.47
2022-07-29T23:44:50.602Z,4.30
2022-07-29T23:47:18.495Z,4.57
2022-07-29T23:49:46.514Z,4.60
2022-07-29T23:52:15.756Z,4.70
2022-07-29T23:54:43.763Z,4.40
2022-07-29T23:57:11.628Z,4.47
2022-07-29T23:59:39.732Z,4.80
